createdAt,value
2023-03-17T00:00:26.708Z,101277.03
2023-03-17T00:03:00.565Z,101278.38
2023-03-17T00:05:42.375Z,101286.13
2023-03-17T00:08:21.799Z,101285.63
2023-03-17T00:10:53.462Z,101279.56
2023-03-17T00:13:27.310Z,101283.44
2023-03-17T00:16:04.688Z,101288.13
2023-03-17T00:18:36.440Z,101289.13
2023-03-17T00:21:08.635Z,101282.69
2023-03-17T00:23:39.744Z,101287.03
2023-03-17T00:26:11.508Z,101289.72
2023-03-17T00:28:44.171Z,101292.75
2023-03-17T00:31:22.429Z,101304.88
2023-03-17T00:33:53.787Z,101297.13
2023-03-17T00:36:28.940Z,101287.31
2023-03-17T00:39:00.408Z,101291.38
2023-03-17T00:41:30.705Z,101296.75
2023-03-17T00:44:02.966Z,101284.28
2023-03-17T00:46:36.835Z,101301.47
2023-03-17T00:49:22.412Z,101306.50
2023-03-17T00:51:55.124Z,101300.78
2023-03-17T00:54:26.235Z,101302.63
2023-03-17T00:56:57.354Z,101307.22
2023-03-17T00:59:31.530Z,101301.16
2023-03-17T01:02:02.730Z,101302.50
2023-03-17T01:04:33.331Z,101300.81
2023-03-17T01:07:04.573Z,101300.81
2023-03-17T01:09:35.945Z,101299.50
2023-03-17T01:12:08.939Z,101297.47
2023-03-17T01:14:42.460Z,101306.22
2023-03-17T01:17:19.218Z,101298.47
2023-03-17T01:19:50.231Z,101293.59
2023-03-17T01:22:21.515Z,101301.50
2023-03-17T01:24:52.526Z,101300.13
2023-03-17T01:27:23.324Z,101302.81
2023-03-17T01:29:55.112Z,101293.53
2023-03-17T01:32:26.551Z,101298.44
2023-03-17T01:34:58.026Z,101285.97
2023-03-17T01:37:29.552Z,101294.19
2023-03-17T01:40:00.583Z,101299.06
2023-03-17T01:42:32.158Z,101274.84
2023-03-17T01:45:41.003Z,101280.38
2023-03-17T01:48:12.093Z,101273.25
2023-03-17T01:50:44.058Z,101272.19
2023-03-17T01:53:15.372Z,101279.19
2023-03-17T01:55:48.219Z,101267.94
2023-03-17T01:58:21.654Z,101264.94
2023-03-17T02:00:54.174Z,101264.94
2023-03-17T02:03:26.600Z,101262.19
2023-03-17T02:05:58.279Z,101265.91
2023-03-17T02:08:28.937Z,101265.53
2023-03-17T02:11:00.148Z,101265.53
2023-03-17T02:13:40.115Z,101265.16
2023-03-17T02:16:17.000Z,101251.84
2023-03-17T02:18:50.291Z,101251.84
2023-03-17T02:21:33.719Z,101249.69
2023-03-17T02:24:10.139Z,101245.22
2023-03-17T02:26:41.238Z,101238.09
2023-03-17T02:29:13.768Z,101235.81
2023-03-17T02:31:46.381Z,101222.38
2023-03-17T02:34:18.507Z,101226.31
2023-03-17T02:36:49.335Z,101224.25
2023-03-17T02:39:20.084Z,101220.16
2023-03-17T02:41:51.523Z,101218.03
2023-03-17T02:44:22.185Z,101209.53
2023-03-17T02:46:56.168Z,101197.03
2023-03-17T02:49:28.232Z,101191.28
2023-03-17T02:51:59.125Z,101188.59
2023-03-17T02:54:32.984Z,101188.84
2023-03-17T02:57:03.701Z,101192.88
2023-03-17T02:59:35.232Z,101180.63
2023-03-17T03:02:06.896Z,101174.00
2023-03-17T03:04:37.842Z,101176.91
2023-03-17T03:07:09.209Z,101160.69
2023-03-17T03:09:41.130Z,101157.31
2023-03-17T03:12:12.243Z,101158.16
2023-03-17T03:14:43.602Z,101151.91
2023-03-17T03:17:14.975Z,101146.69
2023-03-17T03:19:46.161Z,101141.66
2023-03-17T03:22:18.722Z,101136.88
2023-03-17T03:24:49.423Z,101132.97
2023-03-17T03:27:20.577Z,101135.31
2023-03-17T03:29:52.253Z,101128.22
2023-03-17T03:32:23.615Z,101129.03
2023-03-17T03:34:55.042Z,101119.06
2023-03-17T03:37:26.126Z,101126.16
2023-03-17T03:39:58.491Z,101119.50
2023-03-17T03:42:29.240Z,101116.63
2023-03-17T03:45:00.049Z,101118.31
2023-03-17T03:47:31.194Z,101110.84
2023-03-17T03:50:03.254Z,101109.34
2023-03-17T03:52:34.038Z,101110.84
2023-03-17T03:55:08.987Z,101107.50
2023-03-17T03:57:40.115Z,101093.69
2023-03-17T04:00:15.376Z,101109.94
2023-03-17T04:02:51.227Z,101103.66
2023-03-17T04:05:22.265Z,101097.81
2023-03-17T04:07:53.918Z,101105.53
2023-03-17T04:10:24.449Z,101094.47
2023-03-17T04:12:55.230Z,101091.75
2023-03-17T04:15:27.562Z,101087.00
2023-03-17T04:17:58.870Z,101069.47
2023-03-17T04:20:37.832Z,101068.69
2023-03-17T04:23:08.948Z,101067.31
2023-03-17T04:25:39.984Z,101049.13
2023-03-17T04:28:11.268Z,101046.69
2023-03-17T04:30:42.705Z,101057.63
2023-03-17T04:33:13.817Z,101032.38
2023-03-17T04:35:44.643Z,101037.28
2023-03-17T04:38:15.074Z,101041.53
2023-03-17T04:40:45.674Z,101033.84
2023-03-17T04:43:16.573Z,101031.41
2023-03-17T04:45:48.076Z,101019.56
2023-03-17T04:48:18.636Z,101019.59
2023-03-17T04:50:50.072Z,101001.28
2023-03-17T04:53:23.464Z,101002.56
2023-03-17T04:55:55.190Z,100996.75
2023-03-17T04:58:30.946Z,100987.59
2023-03-17T05:01:03.436Z,100989.28
2023-03-17T05:03:34.928Z,100975.09
2023-03-17T05:06:06.729Z,100975.75
2023-03-17T05:08:37.381Z,100973.88
2023-03-17T05:11:08.274Z,100979.28
2023-03-17T05:13:38.882Z,100971.16
2023-03-17T05:16:11.691Z,100962.19
2023-03-17T05:18:43.002Z,100965.53
2023-03-17T05:21:14.380Z,100966.41
2023-03-17T05:23:45.398Z,100960.19
2023-03-17T05:26:16.319Z,100961.00
2023-03-17T05:28:47.418Z,100960.66
2023-03-17T05:31:20.110Z,100948.91
2023-03-17T05:33:50.643Z,100948.31
2023-03-17T05:36:22.312Z,100935.19
2023-03-17T05:38:53.629Z,100943.97
2023-03-17T05:41:27.591Z,100935.19
2023-03-17T05:43:59.658Z,100936.22
2023-03-17T05:46:30.583Z,100936.63
2023-03-17T05:49:01.088Z,100933.28
2023-03-17T05:51:31.264Z,100939.97
2023-03-17T05:54:02.033Z,100938.69
2023-03-17T05:56:34.532Z,100931.16
2023-03-17T05:59:06.451Z,100926.19
2023-03-17T06:01:38.306Z,100915.09
2023-03-17T06:04:08.879Z,100920.31
2023-03-17T06:06:40.940Z,100917.84
2023-03-17T06:09:11.851Z,100913.47
2023-03-17T06:11:42.873Z,100908.69
2023-03-17T06:14:14.088Z,100909.31
2023-03-17T06:16:44.981Z,100905.56
2023-03-17T06:19:15.132Z,100895.38
2023-03-17T06:21:45.798Z,100898.28
2023-03-17T06:24:16.006Z,100888.69
2023-03-17T06:26:47.363Z,100886.59
2023-03-17T06:29:17.778Z,100893.06
2023-03-17T06:31:51.779Z,100883.25
2023-03-17T06:34:24.507Z,100882.84
2023-03-17T06:36:55.710Z,100879.91
2023-03-17T06:39:27.707Z,100881.81
2023-03-17T06:41:58.083Z,100875.94
2023-03-17T06:44:29.086Z,100880.69
2023-03-17T06:47:02.237Z,100875.28
2023-03-17T06:49:32.859Z,100878.41
2023-03-17T06:52:03.321Z,100871.94
2023-03-17T06:54:34.556Z,100876.53
2023-03-17T06:57:05.746Z,100884.03
2023-03-17T06:59:36.503Z,100871.06
2023-03-17T07:02:07.194Z,100866.06
2023-03-17T07:04:39.145Z,100872.28
2023-03-17T07:07:10.575Z,100870.22
2023-03-17T07:09:42.084Z,100871.66
2023-03-17T07:12:13.396Z,100874.34
2023-03-17T07:15:03.070Z,100874.75
2023-03-17T07:17:34.690Z,100876.84
2023-03-17T07:20:05.711Z,100879.75
2023-03-17T07:22:36.604Z,100886.00
2023-03-17T07:25:14.910Z,100881.44
2023-03-17T07:27:45.291Z,100884.97
2023-03-17T07:30:20.072Z,100876.41
2023-03-17T07:32:50.529Z,100882.00
2023-03-17T07:35:20.913Z,100876.75
2023-03-17T07:37:51.890Z,100874.91
2023-03-17T07:40:28.489Z,100881.78
2023-03-17T07:42:59.520Z,100885.53
2023-03-17T07:45:30.455Z,100883.25
2023-03-17T07:48:01.041Z,100880.34
2023-03-17T07:50:31.971Z,100882.00
2023-03-17T07:53:04.404Z,100884.72
2023-03-17T07:55:35.438Z,100885.97
2023-03-17T07:58:10.298Z,100885.13
2023-03-17T08:00:40.919Z,100888.47
2023-03-17T08:03:11.966Z,100889.09
2023-03-17T08:05:42.911Z,100884.31
2023-03-17T08:08:13.731Z,100892.66
2023-03-17T08:10:44.692Z,100892.66
2023-03-17T08:13:15.949Z,100888.91
2023-03-17T08:15:47.332Z,100893.47
2023-03-17T08:18:20.501Z,100896.44
2023-03-17T08:20:52.432Z,100897.47
2023-03-17T08:23:23.603Z,100895.16
2023-03-17T08:26:02.790Z,100898.91
2023-03-17T08:28:34.086Z,100903.28
2023-03-17T08:31:13.811Z,100907.00
2023-03-17T08:33:47.148Z,100915.13
2023-03-17T08:36:21.788Z,100906.38
2023-03-17T08:38:53.737Z,100908.06
2023-03-17T08:41:28.096Z,100913.47
2023-03-17T08:43:59.802Z,100909.72
2023-03-17T08:46:33.692Z,100908.06
2023-03-17T08:49:05.367Z,100912.44
2023-03-17T08:51:38.419Z,100905.16
2023-03-17T08:54:12.689Z,100905.56
2023-03-17T08:56:43.840Z,100909.72
2023-03-17T08:59:15.312Z,100907.88
2023-03-17T09:01:49.657Z,100908.28
2023-03-17T09:04:21.753Z,100905.09
2023-03-17T09:07:02.678Z,100906.78
2023-03-17T09:09:36.934Z,100915.94
2023-03-17T09:12:08.655Z,100911.94
2023-03-17T09:14:44.108Z,100923.81
2023-03-17T09:17:19.044Z,100919.25
2023-03-17T09:19:50.253Z,100926.28
2023-03-17T09:22:20.932Z,100922.94
2023-03-17T09:24:52.430Z,100931.22
2023-03-17T09:27:23.203Z,100927.88
2023-03-17T09:29:54.617Z,100934.88
2023-03-17T09:32:26.761Z,100941.53
2023-03-17T09:35:06.576Z,100937.41
2023-03-17T09:37:37.302Z,100943.22
2023-03-17T09:40:09.390Z,100939.41
2023-03-17T09:43:02.759Z,100936.31
2023-03-17T09:45:36.583Z,100949.78
2023-03-17T09:48:13.896Z,100960.16
2023-03-17T09:51:10.111Z,100957.28
2023-03-17T09:53:54.222Z,100953.47
2023-03-17T09:56:25.788Z,100963.00
2023-03-17T09:59:22.898Z,100973.78
2023-03-17T10:01:54.095Z,100963.38
2023-03-17T10:04:26.012Z,100967.34
2023-03-17T10:07:05.004Z,100971.44
2023-03-17T10:09:42.244Z,100970.41
2023-03-17T10:12:25.780Z,100978.28
2023-03-17T10:15:02.580Z,100977.63
2023-03-17T10:17:43.213Z,100977.34
2023-03-17T10:20:30.985Z,100981.38
2023-03-17T10:23:15.070Z,100988.72
2023-03-17T10:25:46.459Z,100996.84
2023-03-17T10:28:28.172Z,101002.25
2023-03-17T10:31:23.905Z,101001.03
2023-03-17T10:33:54.543Z,101006.81
2023-03-17T10:36:39.975Z,101010.56
2023-03-17T10:39:15.419Z,101007.59
2023-03-17T10:42:01.369Z,101010.50
2023-03-17T10:44:55.764Z,101009.22
2023-03-17T10:47:39.169Z,101015.00
2023-03-17T10:50:26.310Z,101021.16
2023-03-17T10:53:11.876Z,101022.38
2023-03-17T10:55:45.889Z,101020.50
2023-03-17T10:58:19.928Z,101024.41
2023-03-17T11:01:06.651Z,101028.63
2023-03-17T11:03:41.422Z,101029.91
2023-03-17T11:06:15.297Z,101030.75
2023-03-17T11:08:56.860Z,101030.31
2023-03-17T11:11:34.696Z,101039.06
2023-03-17T11:14:07.667Z,101032.34
2023-03-17T11:16:40.114Z,101045.28
2023-03-17T11:19:16.438Z,101049.88
2023-03-17T11:21:48.802Z,101053.41
2023-03-17T11:24:32.163Z,101054.41
2023-03-17T11:27:21.644Z,101057.22
2023-03-17T11:30:14.609Z,101061.06
2023-03-17T11:32:49.403Z,101065.59
2023-03-17T11:35:29.402Z,101078.84
2023-03-17T11:38:18.277Z,101076.78
2023-03-17T11:41:16.195Z,101078.13
2023-03-17T11:44:01.024Z,101085.00
2023-03-17T11:46:47.433Z,101086.41
2023-03-17T11:49:40.379Z,101092.09
2023-03-17T11:53:01.158Z,101094.50
2023-03-17T11:55:41.253Z,101092.00
2023-03-17T11:58:41.328Z,101100.28
2023-03-17T12:01:17.455Z,101114.00
2023-03-17T12:04:06.524Z,101123.69
2023-03-17T12:06:40.671Z,101118.94
2023-03-17T12:09:30.236Z,101125.44
2023-03-17T12:12:01.556Z,101133.28
2023-03-17T12:14:40.453Z,101139.16
2023-03-17T12:17:40.236Z,101145.41
2023-03-17T12:20:34.857Z,101146.41
2023-03-17T12:23:13.398Z,101153.03
2023-03-17T12:26:08.431Z,101152.78
2023-03-17T12:28:58.692Z,101155.94
2023-03-17T12:31:45.815Z,101153.66
2023-03-17T12:34:44.475Z,101157.28
2023-03-17T12:37:16.496Z,101157.50
2023-03-17T12:40:10.897Z,101165.63
2023-03-17T12:42:55.003Z,101162.19
2023-03-17T12:45:47.079Z,101161.88
2023-03-17T12:48:18.523Z,101174.31
2023-03-17T12:51:07.533Z,101178.78
2023-03-17T12:53:41.239Z,101181.41
2023-03-17T12:56:47.597Z,101184.66
2023-03-17T12:59:25.832Z,101192.59
2023-03-17T13:02:16.623Z,101194.44
2023-03-17T13:05:01.912Z,101201.34
2023-03-17T13:07:35.819Z,101203.03
2023-03-17T13:10:43.048Z,101209.47
2023-03-17T13:13:36.683Z,101208.88
2023-03-17T13:16:10.749Z,101201.53
2023-03-17T13:18:50.018Z,101202.81
2023-03-17T13:21:21.769Z,101198.91
2023-03-17T13:24:19.692Z,101196.28
2023-03-17T13:27:00.859Z,101200.09
2023-03-17T13:29:34.187Z,101203.19
2023-03-17T13:32:27.408Z,101203.91
2023-03-17T13:35:20.390Z,101208.00
2023-03-17T13:37:53.733Z,101207.03
2023-03-17T13:41:05.741Z,101205.34
2023-03-17T13:44:03.943Z,101215.22
2023-03-17T13:46:40.544Z,101212.22
2023-03-17T13:49:27.887Z,101216.81
2023-03-17T13:52:12.649Z,101219.00
2023-03-17T13:54:50.040Z,101222.94
2023-03-17T13:57:36.250Z,101228.34
2023-03-17T14:00:23.771Z,101223.66
2023-03-17T14:03:21.464Z,101226.19
2023-03-17T14:05:53.957Z,101225.91
2023-03-17T14:08:41.771Z,101217.81
2023-03-17T14:11:43.084Z,101231.97
2023-03-17T14:14:33.009Z,101224.22
2023-03-17T14:17:04.802Z,101223.94
2023-03-17T14:19:35.594Z,101222.59
2023-03-17T14:22:26.827Z,101224.09
2023-03-17T14:25:02.599Z,101232.38
2023-03-17T14:27:36.963Z,101227.72
2023-03-17T14:30:28.301Z,101234.47
2023-03-17T14:33:06.998Z,101231.78
2023-03-17T14:35:43.141Z,101242.91
2023-03-17T14:38:26.541Z,101244.75
2023-03-17T14:41:12.969Z,101242.25
2023-03-17T14:43:47.401Z,101241.59
2023-03-17T14:46:25.474Z,101241.75
2023-03-17T14:49:15.549Z,101250.03
2023-03-17T14:51:46.324Z,101242.59
2023-03-17T14:54:33.419Z,101244.66
2023-03-17T14:57:09.280Z,101242.31
2023-03-17T14:59:44.596Z,101232.53
2023-03-17T15:02:37.108Z,101234.56
2023-03-17T15:05:25.723Z,101229.50
2023-03-17T15:07:56.967Z,101225.13
2023-03-17T15:10:34.938Z,101226.16
2023-03-17T15:13:08.120Z,101228.66
2023-03-17T15:15:42.616Z,101221.13
2023-03-17T15:18:15.998Z,101225.31
2023-03-17T15:20:47.119Z,101219.44
2023-03-17T15:23:23.165Z,101216.91
2023-03-17T15:25:57.433Z,101219.44
2023-03-17T15:28:30.616Z,101211.03
2023-03-17T15:31:14.892Z,101214.38
2023-03-17T15:33:46.737Z,101215.41
2023-03-17T15:36:31.913Z,101213.06
2023-03-17T15:39:04.639Z,101203.63
2023-03-17T15:41:35.265Z,101204.66
2023-03-17T15:44:06.241Z,101210.41
2023-03-17T15:46:37.775Z,101195.25
2023-03-17T15:49:14.293Z,101202.50
2023-03-17T15:51:45.418Z,101196.25
2023-03-17T15:54:16.502Z,101185.81
2023-03-17T15:56:50.341Z,101191.22
2023-03-17T15:59:21.806Z,101187.84
2023-03-17T16:01:52.832Z,101186.19
2023-03-17T16:04:23.833Z,101184.19
2023-03-17T16:06:54.984Z,101189.28
2023-03-17T16:09:25.655Z,101184.91
2023-03-17T16:11:56.718Z,101179.84
2023-03-17T16:14:28.761Z,101176.69
2023-03-17T16:16:59.424Z,101176.19
2023-03-17T16:19:30.400Z,101169.78
2023-03-17T16:22:02.779Z,101173.81
2023-03-17T16:24:33.841Z,101165.94
2023-03-17T16:27:07.118Z,101166.75
2023-03-17T16:29:40.617Z,101163.41
2023-03-17T16:32:12.369Z,101163.75
2023-03-17T16:34:43.532Z,101163.75
2023-03-17T16:37:18.359Z,101164.94
2023-03-17T16:39:53.045Z,101157.38
2023-03-17T16:42:24.517Z,101152.31
2023-03-17T16:44:55.378Z,101155.69
2023-03-17T16:47:25.854Z,101145.91
2023-03-17T16:49:57.080Z,101147.28
2023-03-17T16:52:29.900Z,101141.88
2023-03-17T16:55:00.979Z,101140.22
2023-03-17T16:57:34.162Z,101139.56
2023-03-17T17:00:07.530Z,101136.88
2023-03-17T17:02:38.501Z,101136.03
2023-03-17T17:05:30.597Z,101138.53
2023-03-17T17:08:01.741Z,101134.69
2023-03-17T17:10:34.745Z,101130.31
2023-03-17T17:13:07.904Z,101123.09
2023-03-17T17:15:39.103Z,101123.75
2023-03-17T17:18:17.348Z,101120.03
2023-03-17T17:20:48.205Z,101112.13
2023-03-17T17:23:22.208Z,101101.34
2023-03-17T17:25:54.712Z,101095.47
2023-03-17T17:28:26.973Z,101089.41
2023-03-17T17:30:59.708Z,101085.69
2023-03-17T17:33:30.480Z,101084.03
2023-03-17T17:36:03.019Z,101081.31
2023-03-17T17:38:36.138Z,101079.66
2023-03-17T17:41:07.948Z,101072.56
2023-03-17T17:43:40.585Z,101073.75
2023-03-17T17:46:17.439Z,101070.59
2023-03-17T17:48:49.806Z,101069.56
2023-03-17T17:51:20.777Z,101059.13
2023-03-17T17:53:52.632Z,101065.19
2023-03-17T17:56:23.526Z,101060.81
2023-03-17T17:58:54.786Z,101053.75
2023-03-17T18:01:25.736Z,101057.47
2023-03-17T18:03:56.404Z,101051.22
2023-03-17T18:06:27.225Z,101053.09
2023-03-17T18:08:57.665Z,101051.41
2023-03-17T18:11:29.082Z,101045.34
2023-03-17T18:13:59.748Z,101048.50
2023-03-17T18:16:30.824Z,101038.28
2023-03-17T18:19:01.728Z,101042.66
2023-03-17T18:21:33.914Z,101036.94
2023-03-17T18:24:05.713Z,101032.88
2023-03-17T18:26:36.898Z,101028.69
2023-03-17T18:29:08.892Z,101033.25
2023-03-17T18:31:44.454Z,101026.16
2023-03-17T18:34:24.714Z,101034.91
2023-03-17T18:36:58.242Z,101027.84
2023-03-17T18:39:29.391Z,101027.53
2023-03-17T18:41:59.978Z,101023.97
2023-03-17T18:44:31.092Z,101019.81
2023-03-17T18:47:03.363Z,101019.81
2023-03-17T18:49:34.509Z,101018.78
2023-03-17T18:52:06.114Z,101028.91
2023-03-17T18:54:37.498Z,101023.84
2023-03-17T18:57:12.231Z,101024.19
2023-03-17T18:59:45.448Z,101021.50
2023-03-17T19:02:16.705Z,101027.06
2023-03-17T19:04:48.682Z,101026.22
2023-03-17T19:07:20.441Z,101024.56
2023-03-17T19:09:54.320Z,101025.72
2023-03-17T19:12:25.136Z,101027.41
2023-03-17T19:14:56.440Z,101019.66
2023-03-17T19:17:27.034Z,101026.91
2023-03-17T19:19:58.084Z,101015.59
2023-03-17T19:22:28.844Z,101021.19
2023-03-17T19:25:00.424Z,101009.41
2023-03-17T19:27:31.620Z,101011.78
2023-03-17T19:30:02.467Z,101017.16
2023-03-17T19:32:33.158Z,101021.88
2023-03-17T19:35:03.743Z,101019.38
2023-03-17T19:37:34.551Z,101013.78
2023-03-17T19:40:07.800Z,101017.50
2023-03-17T19:42:38.953Z,101020.38
2023-03-17T19:45:10.085Z,101011.44
2023-03-17T19:47:42.085Z,101019.03
2023-03-17T19:50:14.462Z,101026.94
2023-03-17T19:52:46.925Z,101034.34
2023-03-17T19:55:18.777Z,101029.97
2023-03-17T19:57:50.018Z,101027.28
2023-03-17T20:00:21.952Z,101028.63
2023-03-17T20:02:55.297Z,101019.38
2023-03-17T20:05:26.603Z,101031.16
2023-03-17T20:07:57.897Z,101030.84
2023-03-17T20:10:29.103Z,101031.50
2023-03-17T20:12:59.691Z,101027.13
2023-03-17T20:15:31.274Z,101035.38
2023-03-17T20:18:02.934Z,101028.31
2023-03-17T20:20:33.662Z,101027.63
2023-03-17T20:23:04.568Z,101018.72
2023-03-17T20:25:35.638Z,101024.94
2023-03-17T20:28:08.550Z,101036.03
2023-03-17T20:30:40.416Z,101037.72
2023-03-17T20:33:13.491Z,101048.50
2023-03-17T20:35:49.259Z,101033.69
2023-03-17T20:38:20.503Z,101041.78
2023-03-17T20:40:51.596Z,101041.78
2023-03-17T20:43:22.776Z,101043.78
2023-03-17T20:45:54.303Z,101044.13
2023-03-17T20:48:24.922Z,101045.16
2023-03-17T20:50:55.934Z,101047.84
2023-03-17T20:53:26.692Z,101054.06
2023-03-17T20:55:57.866Z,101049.69
2023-03-17T20:58:28.859Z,101059.78
2023-03-17T21:00:59.521Z,101066.00
2023-03-17T21:03:30.985Z,101065.31
2023-03-17T21:06:01.885Z,101070.03
2023-03-17T21:08:32.819Z,101069.38
2023-03-17T21:11:03.734Z,101084.50
2023-03-17T21:13:34.941Z,101087.03
2023-03-17T21:16:06.393Z,101084.50
2023-03-17T21:18:38.372Z,101094.09
2023-03-17T21:21:09.131Z,101091.56
2023-03-17T21:23:39.870Z,101096.28
2023-03-17T21:26:10.646Z,101098.97
2023-03-17T21:28:41.904Z,101099.63
2023-03-17T21:31:13.544Z,101109.22
2023-03-17T21:33:44.737Z,101114.78
2023-03-17T21:36:15.620Z,101113.75
2023-03-17T21:38:46.690Z,101126.53
2023-03-17T21:41:44.489Z,101123.19
2023-03-17T21:44:16.911Z,101125.88
2023-03-17T21:46:50.144Z,101126.00
2023-03-17T21:49:20.699Z,101123.47
2023-03-17T21:51:52.479Z,101133.22
2023-03-17T21:54:23.521Z,101132.06
2023-03-17T21:56:54.398Z,101130.88
2023-03-17T21:59:25.888Z,101135.09
2023-03-17T22:01:56.900Z,101133.75
2023-03-17T22:04:29.458Z,101141.63
2023-03-17T22:07:00.275Z,101141.13
2023-03-17T22:09:31.678Z,101144.66
2023-03-17T22:12:02.837Z,101146.66
2023-03-17T22:14:36.496Z,101149.88
2023-03-17T22:17:09.201Z,101154.75
2023-03-17T22:19:43.058Z,101163.84
2023-03-17T22:22:14.266Z,101162.16
2023-03-17T22:24:45.224Z,101172.75
2023-03-17T22:27:18.017Z,101179.47
2023-03-17T22:29:49.144Z,101167.53
2023-03-17T22:32:20.114Z,101172.91
2023-03-17T22:34:51.353Z,101178.31
2023-03-17T22:37:24.491Z,101180.31
2023-03-17T22:39:55.607Z,101175.94
2023-03-17T22:42:27.528Z,101186.69
2023-03-17T22:44:58.773Z,101190.22
2023-03-17T22:47:29.819Z,101192.75
2023-03-17T22:50:00.926Z,101198.13
2023-03-17T22:52:33.269Z,101198.47
2023-03-17T22:55:05.087Z,101202.84
2023-03-17T22:57:36.422Z,101201.84
2023-03-17T23:00:17.616Z,101210.91
2023-03-17T23:02:48.558Z,101208.03
2023-03-17T23:05:20.279Z,101202.16
2023-03-17T23:07:52.773Z,101203.53
2023-03-17T23:10:28.186Z,101205.22
2023-03-17T23:12:59.161Z,101213.91
2023-03-17T23:15:30.220Z,101216.28
2023-03-17T23:18:02.084Z,101216.47
2023-03-17T23:20:34.135Z,101216.97
2023-03-17T23:23:09.137Z,101217.19
2023-03-17T23:25:40.520Z,101213.66
2023-03-17T23:28:11.817Z,101216.72
2023-03-17T23:30:44.040Z,101213.53
2023-03-17T23:33:18.422Z,101221.78
2023-03-17T23:35:51.286Z,101220.44
2023-03-17T23:38:22.832Z,101219.09
2023-03-17T23:41:00.000Z,101219.78
2023-03-17T23:43:31.871Z,101225.16
2023-03-17T23:46:03.079Z,101227.19
2023-03-17T23:48:34.110Z,101228.53
2023-03-17T23:51:05.631Z,101237.94
2023-03-17T23:53:37.604Z,101241.31
2023-03-17T23:56:09.656Z,101242.66
2023-03-17T23:58:43.448Z,101230.75
